Terminal Aerodrome Forecast
Issued by NWS Goodland, KS

Home | Current Version | Previous Version | Text Only | Print | Product List | Glossary On
Versions: 1 2 3 4 5 6 7 8 9 10 11 12 13 14
000
FTUS43 KGLD 282346
TAFGLD
TAF
KGLD 282346Z 2900/2924 04011G18KT P6SM SKC
     FM290200 04010KT P6SM SCT250
     FM291500 11015KT P6SM BKN150
     FM291800 14015G23KT P6SM BKN150=

USA.gov is the U.S. government's official web portal to all federal, state and local government web resources and services.